Time;durP1;ratioP1;P1;durP2;ratioP2;P2;SDS_P1;SDS_P2;PMS_P1;PMS_P2;Temp;Humidity;BMP_temperature;BMP_pressure;BME280_temperature;BME280_humidity;BME280_pressure;Samples;Min_cycle;Max_cycle;Signal;HPM_P1;HPM_P2
2021/06/05 00:02:20;;;;;;;121.40;48.10;;;17.90;99.90;;;;;;5052629;28;20580;-59
2021/06/05 00:04:46;;;;;;;168.17;53.50;;;17.80;99.90;;;;;;5054308;28;20236;-62
2021/06/05 00:07:14;;;;;;;239.60;60.27;;;17.70;99.90;;;;;;5054096;28;20233;-62
2021/06/05 00:09:40;;;;;;;129.47;52.90;;;17.60;1.00;;;;;;5053903;28;20210;-61
2021/06/05 00:12:08;;;;;;;103.93;49.57;;;17.70;1.00;;;;;;5053796;28;20267;-62
2021/06/05 00:14:34;;;;;;;99.57;47.53;;;17.70;1.00;;;;;;5053632;28;20210;-61
2021/06/05 00:17:00;;;;;;;84.40;44.57;;;17.70;1.00;;;;;;5053854;28;20233;-60
2021/06/05 00:19:26;;;;;;;77.63;44.40;;;17.80;1.00;;;;;;5053535;28;20689;-61
2021/06/05 00:21:52;;;;;;;83.30;45.07;;;17.80;1.00;;;;;;5053710;28;20221;-59
2021/06/05 00:24:20;;;;;;;74.70;41.87;;;17.80;1.00;;;;;;5053585;28;20210;-60
2021/06/05 00:26:46;;;;;;;69.63;40.63;;;17.80;1.00;;;;;;5054855;28;20620;-61
2021/06/05 00:29:13;;;;;;;67.90;40.60;;;17.80;1.00;;;;;;5055176;28;20212;-62
2021/06/05 00:31:39;;;;;;;70.27;41.87;;;17.80;1.00;;;;;;5054642;28;20674;-61
2021/06/05 00:34:05;;;;;;;83.87;44.50;;;17.80;1.00;;;;;;5055031;28;20213;-62
2021/06/05 00:36:31;;;;;;;74.23;43.37;;;17.80;99.90;;;;;;5059404;28;20226;-62
2021/06/05 00:38:58;;;;;;;76.90;43.27;;;17.90;99.90;;;;;;5059083;28;20206;-62
2021/06/05 00:41:27;;;;;;;69.33;39.77;;;17.90;99.90;;;;;;5055648;28;20593;-61
2021/06/05 00:43:56;;;;;;;103.80;44.63;;;17.90;99.90;;;;;;5052982;28;20252;-62
2021/06/05 00:46:24;;;;;;;75.87;42.87;;;17.80;99.90;;;;;;5053144;28;20225;-62
2021/06/05 00:48:51;;;;;;;78.93;41.57;;;17.80;99.90;;;;;;5053118;28;20231;-61
2021/06/05 00:51:18;;;;;;;179.30;48.13;;;17.80;99.90;;;;;;5052884;28;20202;-60
2021/06/05 00:53:45;;;;;;;75.40;41.20;;;17.80;99.90;;;;;;5053181;28;20209;-62
2021/06/05 00:56:13;;;;;;;72.00;42.33;;;17.80;99.90;;;;;;5052777;28;20328;-62
2021/06/05 00:58:41;;;;;;;72.17;40.40;;;17.80;99.90;;;;;;5052741;28;20693;-61
2021/06/05 01:01:11;;;;;;;87.33;46.60;;;17.80;99.90;;;;;;5052642;28;20642;-61
2021/06/05 01:03:38;;;;;;;91.53;45.63;;;17.80;99.90;;;;;;5052873;28;20206;-60
2021/06/05 01:06:09;;;;;;;85.57;42.00;;;17.80;99.90;;;;;;5052594;28;20268;-61
2021/06/05 01:08:43;;;;;;;87.63;43.00;;;17.70;99.90;;;;;;5052728;28;20205;-59
2021/06/05 01:11:17;;;;;;;107.80;43.20;;;17.70;99.90;;;;;;5052321;28;20228;-59
2021/06/05 01:13:48;;;;;;;83.93;42.90;;;17.60;99.90;;;;;;5052474;28;20222;-58
2021/06/05 01:16:18;;;;;;;101.50;44.83;;;17.60;99.90;;;;;;5052472;28;20563;-58
2021/06/05 01:18:49;;;;;;;101.80;43.97;;;17.60;99.90;;;;;;5052542;28;20247;-59
2021/06/05 01:21:43;;;;;;;76.37;39.37;;;17.60;99.90;;;;;;5052073;28;20221;-58
2021/06/05 01:24:19;;;;;;;83.73;43.17;;;17.60;99.90;;;;;;5052613;28;20276;-58
2021/06/05 01:26:53;;;;;;;119.73;46.50;;;17.60;99.90;;;;;;5052117;28;20232;-56
2021/06/05 01:29:22;;;;;;;243.80;54.13;;;17.50;99.90;;;;;;5052280;28;20232;-58
2021/06/05 01:31:52;;;;;;;221.67;58.23;;;17.40;99.90;;;;;;5051921;28;20209;-59
2021/06/05 01:34:20;;;;;;;350.07;67.80;;;17.40;99.90;;;;;;5052447;28;20225;-56
2021/06/05 01:36:50;;;;;;;377.17;66.93;;;17.30;99.90;;;;;;5052036;28;20237;-58
2021/06/05 01:39:20;;;;;;;399.90;69.60;;;17.30;1.00;;;;;;5052129;28;20210;-55
2021/06/05 01:41:49;;;;;;;439.73;71.87;;;17.30;1.00;;;;;;5051932;28;20702;-59
2021/06/05 01:44:16;;;;;;;365.93;72.53;;;17.40;8.70;;;;;;5051835;28;20217;-58
2021/06/05 01:46:46;;;;;;;338.77;66.80;;;17.40;99.90;;;;;;5052131;28;20222;-58
2021/06/05 01:49:13;;;;;;;272.67;66.40;;;17.40;99.90;;;;;;5051963;28;20206;-56
2021/06/05 01:51:44;;;;;;;222.97;61.17;;;17.40;99.90;;;;;;5051814;28;20662;-59
2021/06/05 01:54:14;;;;;;;183.00;58.83;;;17.50;99.90;;;;;;5051948;28;20201;-58
2021/06/05 01:56:43;;;;;;;198.67;59.43;;;17.50;1.00;;;;;;5051725;28;20728;-60
2021/06/05 01:59:13;;;;;;;213.50;60.07;;;17.50;1.00;;;;;;5052124;28;20205;-59
2021/06/05 02:01:40;;;;;;;212.37;59.40;;;17.50;1.00;;;;;;5051826;28;20225;-60
2021/06/05 02:04:07;;;;;;;183.47;58.13;;;17.50;1.00;;;;;;5051827;28;20264;-58
2021/06/05 02:06:33;;;;;;;157.23;58.00;;;17.50;1.00;;;;;;5051852;28;20227;-57
2021/06/05 02:09:01;;;;;;;146.27;53.47;;;17.60;1.00;;;;;;5051829;28;20209;-59
2021/06/05 02:11:29;;;;;;;146.53;52.47;;;17.60;1.00;;;;;;5051643;28;20206;-57
2021/06/05 02:13:58;;;;;;;136.73;52.97;;;17.60;1.00;;;;;;5051997;28;20263;-58
2021/06/05 02:16:29;;;;;;;153.80;55.20;;;17.70;1.00;;;;;;5051822;28;20226;-61
2021/06/05 02:19:00;;;;;;;139.57;53.53;;;17.60;1.00;;;;;;5051919;28;20236;-61
2021/06/05 02:21:28;;;;;;;146.80;53.47;;;17.60;1.00;;;;;;5051488;28;20229;-60
2021/06/05 02:24:00;;;;;;;135.53;51.30;;;17.60;1.00;;;;;;5051504;28;20271;-61
2021/06/05 02:26:28;;;;;;;128.27;48.93;;;17.60;1.00;;;;;;5054943;28;20233;-61
2021/06/05 02:28:57;;;;;;;119.83;49.27;;;17.60;1.00;;;;;;5055899;28;20206;-60
2021/06/05 02:31:25;;;;;;;120.63;49.30;;;17.60;1.00;;;;;;5055605;28;20271;-60
2021/06/05 02:33:52;;;;;;;123.13;48.90;;;17.60;1.00;;;;;;5055792;28;20209;-58
2021/06/05 02:36:18;;;;;;;119.53;49.27;;;17.50;1.00;;;;;;5055381;28;20643;-60
2021/06/05 02:38:49;;;;;;;136.67;49.63;;;17.50;1.00;;;;;;5055941;28;20213;-61
2021/06/05 02:41:17;;;;;;;117.77;48.27;;;17.40;1.00;;;;;;5055616;28;20228;-61
2021/06/05 02:43:45;;;;;;;112.40;48.03;;;17.40;1.00;;;;;;5055610;28;20561;-61
2021/06/05 02:46:15;;;;;;;118.43;47.77;;;17.40;1.00;;;;;;5055334;28;20229;-60
2021/06/05 02:48:47;;;;;;;102.90;46.10;;;17.40;1.00;;;;;;5055363;28;20206;-58
2021/06/05 02:51:15;;;;;;;117.03;48.10;;;17.40;1.00;;;;;;5055123;28;20202;-60
2021/06/05 02:53:42;;;;;;;132.77;48.40;;;17.40;1.00;;;;;;5055480;28;20208;-59
2021/06/05 02:56:09;;;;;;;115.00;49.33;;;17.40;1.00;;;;;;5055303;28;20601;-60
2021/06/05 02:58:36;;;;;;;106.07;45.63;;;17.40;1.00;;;;;;5055314;28;20206;-59
2021/06/05 03:01:05;;;;;;;102.80;44.80;;;17.40;1.00;;;;;;5054803;28;20268;-59
2021/06/05 03:03:31;;;;;;;109.67;46.50;;;17.40;1.00;;;;;;5055064;28;20206;-59
2021/06/05 03:05:59;;;;;;;123.67;47.50;;;17.50;1.00;;;;;;5055180;28;20617;-60
2021/06/05 03:08:29;;;;;;;99.23;45.40;;;17.40;1.00;;;;;;5055129;28;20205;-62
2021/06/05 03:10:56;;;;;;;95.80;43.63;;;17.40;1.00;;;;;;5054981;28;20259;-61
2021/06/05 03:13:24;;;;;;;96.50;43.00;;;17.50;1.00;;;;;;5054930;28;20206;-66
2021/06/05 03:15:51;;;;;;;81.73;39.70;;;17.50;1.00;;;;;;5054735;28;20316;-66
2021/06/05 03:18:19;;;;;;;92.70;42.97;;;17.50;1.00;;;;;;5054796;28;20634;-66
2021/06/05 03:20:48;;;;;;;79.37;39.67;;;17.60;1.00;;;;;;5054727;28;20221;-66
2021/06/05 03:23:18;;;;;;;83.83;39.80;;;17.60;1.00;;;;;;5054827;28;20267;-65
2021/06/05 03:25:46;;;;;;;77.40;39.20;;;17.60;1.00;;;;;;5054553;28;20241;-66
2021/06/05 03:28:13;;;;;;;67.67;37.13;;;17.70;1.00;;;;;;5054651;28;20216;-66
2021/06/05 03:30:39;;;;;;;77.97;40.90;;;17.70;1.00;;;;;;5054235;28;20206;-65
2021/06/05 03:33:05;;;;;;;73.77;40.00;;;17.80;1.00;;;;;;5054662;28;20206;-66
2021/06/05 03:35:32;;;;;;;59.33;34.53;;;17.80;99.90;;;;;;5054483;28;20236;-66
2021/06/05 03:37:59;;;;;;;73.50;39.43;;;17.80;99.90;;;;;;5054555;28;20236;-66
2021/06/05 03:40:30;;;;;;;72.27;38.47;;;17.90;99.90;;;;;;5054213;28;20206;-66
2021/06/05 03:42:57;;;;;;;61.93;36.00;;;17.80;99.90;;;;;;5054430;28;20621;-66
2021/06/05 03:45:23;;;;;;;73.07;40.00;;;17.80;99.90;;;;;;5054469;28;20210;-66
2021/06/05 03:47:51;;;;;;;69.20;37.50;;;17.80;18.70;;;;;;5054741;28;20206;-66
2021/06/05 03:50:21;;;;;;;67.40;37.60;;;17.90;1.00;;;;;;5054178;28;20206;-66
2021/06/05 03:52:47;;;;;;;70.37;39.63;;;17.90;1.00;;;;;;5054380;28;20212;-66
2021/06/05 03:55:14;;;;;;;76.43;41.03;;;17.90;1.00;;;;;;5054189;28;20205;-66
2021/06/05 03:57:42;;;;;;;78.37;40.53;;;17.80;1.00;;;;;;5054160;28;20212;-66
2021/06/05 04:00:11;;;;;;;77.93;41.10;;;17.80;1.00;;;;;;5054031;28;20259;-66
2021/06/05 04:02:38;;;;;;;86.30;41.10;;;17.80;1.00;;;;;;5054304;28;20233;-66
2021/06/05 04:05:04;;;;;;;93.13;43.23;;;17.70;99.90;;;;;;5054172;28;20206;-66
2021/06/05 04:07:31;;;;;;;91.07;42.53;;;17.60;1.00;;;;;;5054136;28;20233;-66
2021/06/05 04:09:57;;;;;;;93.90;41.97;;;17.70;1.00;;;;;;5053860;28;20209;-66
2021/06/05 04:12:23;;;;;;;104.50;44.60;;;17.70;1.00;;;;;;5054631;28;20553;-66
2021/06/05 04:14:50;;;;;;;93.20;42.80;;;17.70;1.00;;;;;;5054101;28;20213;-66
2021/06/05 04:17:16;;;;;;;99.33;43.93;;;17.70;15.20;;;;;;5053895;28;20228;-66
2021/06/05 04:19:43;;;;;;;97.20;45.30;;;17.70;1.90;;;;;;5054045;28;20205;-66
2021/06/05 04:22:09;;;;;;;98.63;43.63;;;17.70;1.00;;;;;;5053728;28;20230;-66
2021/06/05 04:24:37;;;;;;;120.07;45.70;;;17.70;1.00;;;;;;5054210;28;20729;-63
2021/06/05 04:27:05;;;;;;;95.77;42.73;;;17.70;9.90;;;;;;5053865;28;20241;-64
2021/06/05 04:29:32;;;;;;;100.90;43.37;;;17.70;64.70;;;;;;5053766;28;20205;-65
2021/06/05 04:31:59;;;;;;;108.83;46.00;;;17.70;70.70;;;;;;5059562;28;20221;-66
2021/06/05 04:34:25;;;;;;;103.10;45.27;;;17.70;99.90;;;;;;5061208;28;20206;-66
2021/06/05 04:36:52;;;;;;;110.17;47.27;;;17.60;99.90;;;;;;5054102;28;20254;-66
2021/06/05 04:39:20;;;;;;;105.70;45.77;;;17.60;99.90;;;;;;5066675;28;20214;-65
2021/06/05 04:41:47;;;;;;;113.30;45.30;;;17.60;99.90;;;;;;5071464;28;20225;-66
2021/06/05 04:44:13;;;;;;;135.57;49.00;;;17.60;99.90;;;;;;5070833;28;20206;-66
2021/06/05 04:46:39;;;;;;;135.90;51.10;;;17.50;99.90;;;;;;5053235;28;20233;-66
2021/06/05 04:49:08;;;;;;;140.80;49.50;;;17.50;99.90;;;;;;5052685;28;20251;-66
2021/06/05 04:51:35;;;;;;;138.50;51.70;;;17.50;1.00;;;;;;5052912;28;20625;-65
2021/06/05 04:54:01;;;;;;;146.93;50.40;;;17.50;1.00;;;;;;5052932;28;20222;-65
2021/06/05 04:56:34;;;;;;;136.97;51.33;;;17.50;1.00;;;;;;5053158;28;20230;-65
2021/06/05 04:59:00;;;;;;;132.77;52.87;;;17.60;1.00;;;;;;5052996;28;20828;-65
2021/06/05 05:01:26;;;;;;;123.20;49.57;;;17.60;1.00;;;;;;5052779;28;20229;-66
2021/06/05 05:03:52;;;;;;;128.40;47.77;;;17.60;1.00;;;;;;5052887;28;20229;-65
2021/06/05 05:06:20;;;;;;;114.20;49.80;;;17.60;1.00;;;;;;5052667;28;20627;-65
2021/06/05 05:08:46;;;;;;;111.47;46.13;;;17.60;99.90;;;;;;5052930;28;20221;-66
2021/06/05 05:11:12;;;;;;;107.80;48.77;;;17.70;99.90;;;;;;5052855;28;20206;-65
2021/06/05 05:13:38;;;;;;;106.03;46.73;;;17.70;99.90;;;;;;5052587;28;20205;-66
2021/06/05 05:16:06;;;;;;;100.50;47.00;;;17.70;99.90;;;;;;5052586;28;20717;-66
2021/06/05 05:18:33;;;;;;;90.17;43.87;;;17.60;1.00;;;;;;5052590;28;20202;-66
2021/06/05 05:21:00;;;;;;;100.20;46.37;;;17.60;1.00;;;;;;5052233;28;20229;-60
2021/06/05 05:23:29;;;;;;;99.00;47.60;;;17.70;1.00;;;;;;5052626;28;20259;-63
2021/06/05 05:25:56;;;;;;;88.50;45.07;;;17.70;1.00;;;;;;5052545;28;20314;-61
2021/06/05 05:28:23;;;;;;;93.47;46.43;;;17.70;99.90;;;;;;5052525;28;20202;-63
2021/06/05 05:30:53;;;;;;;89.17;45.30;;;17.70;99.90;;;;;;5052295;28;20217;-63
2021/06/05 05:33:20;;;;;;;93.53;45.33;;;17.70;99.90;;;;;;5052399;28;20210;-61
2021/06/05 05:35:47;;;;;;;105.37;48.73;;;17.70;99.90;;;;;;5052128;28;20222;-63
2021/06/05 05:38:13;;;;;;;113.20;51.63;;;17.70;99.90;;;;;;5052482;28;20288;-60
2021/06/05 05:40:43;;;;;;;124.57;51.87;;;17.70;99.90;;;;;;5052051;28;20201;-58
2021/06/05 05:43:10;;;;;;;116.40;50.90;;;17.70;99.90;;;;;;5052286;28;20210;-60
2021/06/05 05:45:36;;;;;;;129.97;52.80;;;17.70;99.90;;;;;;5052046;28;20713;-60
2021/06/05 05:48:06;;;;;;;120.17;53.17;;;17.70;99.90;;;;;;5052351;28;20206;-58
2021/06/05 05:50:35;;;;;;;121.00;53.63;;;17.70;99.90;;;;;;5052557;28;20216;-60
2021/06/05 05:53:01;;;;;;;122.93;54.70;;;17.80;99.90;;;;;;5052388;28;20670;-59
2021/06/05 05:55:28;;;;;;;108.63;51.70;;;17.80;99.90;;;;;;5052136;28;20205;-60
2021/06/05 05:57:55;;;;;;;109.67;49.87;;;17.80;99.90;;;;;;5052167;28;20612;-59
2021/06/05 06:00:25;;;;;;;106.70;51.83;;;17.80;99.90;;;;;;5050888;28;20205;-59
2021/06/05 06:02:51;;;;;;;106.80;51.50;;;17.80;99.90;;;;;;5052310;28;20225;-57
2021/06/05 06:05:18;;;;;;;109.83;52.00;;;17.80;99.90;;;;;;5051684;28;20697;-60
2021/06/05 06:07:44;;;;;;;108.43;51.13;;;17.80;99.90;;;;;;5052045;28;20206;-59
2021/06/05 06:10:13;;;;;;;105.77;49.97;;;17.80;99.90;;;;;;5051723;28;20209;-60
2021/06/05 06:12:40;;;;;;;101.93;48.93;;;17.90;99.90;;;;;;5051721;28;20739;-58
2021/06/05 06:15:12;;;;;;;98.37;49.33;;;18.00;99.90;;;;;;5051692;28;20209;-59
2021/06/05 06:17:39;;;;;;;101.57;51.07;;;18.10;99.90;;;;;;5051938;28;20205;-60
2021/06/05 06:20:07;;;;;;;99.97;46.60;;;18.10;1.00;;;;;;5051735;28;20205;-59
2021/06/05 06:22:33;;;;;;;99.17;51.30;;;18.00;1.00;;;;;;5051647;28;20225;-60
2021/06/05 06:25:02;;;;;;;95.67;48.50;;;18.10;1.00;;;;;;5051820;28;20213;-61
2021/06/05 06:27:28;;;;;;;101.20;49.47;;;18.10;99.90;;;;;;5051387;28;20260;-61
2021/06/05 06:29:54;;;;;;;98.77;49.57;;;18.10;1.00;;;;;;5051431;28;20682;-62
2021/06/05 06:32:21;;;;;;;101.90;49.47;;;18.10;99.90;;;;;;5051783;28;20201;-62
2021/06/05 06:34:48;;;;;;;93.17;49.33;;;18.10;1.00;;;;;;5051826;28;20228;-58
2021/06/05 06:37:14;;;;;;;107.47;51.30;;;18.10;99.90;;;;;;5051541;28;20228;-61
2021/06/05 06:39:40;;;;;;;101.83;49.93;;;18.10;1.00;;;;;;5051710;28;20216;-61
2021/06/05 06:42:07;;;;;;;94.07;48.20;;;18.20;1.00;;;;;;5051119;28;20221;-61
2021/06/05 06:44:33;;;;;;;90.13;48.20;;;18.20;1.00;;;;;;5051752;28;20592;-60
2021/06/05 06:46:59;;;;;;;96.13;50.17;;;18.20;99.90;;;;;;5051317;28;20787;-60
2021/06/05 06:49:26;;;;;;;97.90;48.40;;;18.20;99.90;;;;;;5051401;28;20674;-61
2021/06/05 06:51:53;;;;;;;86.07;47.07;;;18.20;99.90;;;;;;5051380;28;20201;-61
2021/06/05 06:54:19;;;;;;;96.07;46.77;;;18.10;99.90;;;;;;5051386;28;20279;-61
2021/06/05 06:56:46;;;;;;;100.13;47.93;;;18.10;99.90;;;;;;5051120;28;20615;-60
2021/06/05 06:59:13;;;;;;;103.27;50.23;;;18.10;1.00;;;;;;5051434;28;20232;-61
2021/06/05 07:01:39;;;;;;;99.57;47.23;;;18.10;1.00;;;;;;5051350;28;20229;-61
2021/06/05 07:04:06;;;;;;;94.73;45.80;;;18.10;1.00;;;;;;5049969;28;20234;-61
2021/06/05 07:06:34;;;;;;;89.70;44.77;;;18.10;1.00;;;;;;5051281;28;20229;-61
2021/06/05 07:09:00;;;;;;;84.67;45.43;;;18.10;99.90;;;;;;5051206;28;20682;-61
2021/06/05 07:11:29;;;;;;;84.60;44.80;;;18.20;99.90;;;;;;5052463;28;20198;-61
2021/06/05 07:13:56;;;;;;;84.47;43.87;;;18.20;99.90;;;;;;5055351;28;20212;-61
2021/06/05 07:16:23;;;;;;;79.80;41.67;;;18.30;99.90;;;;;;5055322;28;20602;-63
2021/06/05 07:18:49;;;;;;;77.03;40.13;;;18.30;99.90;;;;;;5054980;28;20206;-63
2021/06/05 07:21:19;;;;;;;80.43;40.03;;;18.30;99.90;;;;;;5054573;28;20279;-63
2021/06/05 07:23:47;;;;;;;80.87;40.93;;;18.30;17.80;;;;;;5054704;28;20205;-63
2021/06/05 07:26:16;;;;;;;83.97;40.40;;;18.30;1.00;;;;;;5054936;28;20241;-58
2021/06/05 07:28:44;;;;;;;76.43;40.03;;;18.30;1.00;;;;;;5054840;28;20209;-63
2021/06/05 07:31:14;;;;;;;83.77;40.93;;;18.30;10.00;;;;;;5054458;28;20205;-63
2021/06/05 07:33:42;;;;;;;81.73;39.97;;;18.30;99.90;;;;;;5054806;28;20201;-62
2021/06/05 07:36:12;;;;;;;75.50;40.03;;;18.30;99.90;;;;;;5054415;28;20229;-64
2021/06/05 07:38:38;;;;;;;79.90;40.20;;;18.40;99.90;;;;;;5054476;28;20724;-62
2021/06/05 07:41:06;;;;;;;76.57;39.17;;;18.40;90.90;;;;;;5054346;28;20214;-61
2021/06/05 07:43:33;;;;;;;70.50;37.30;;;18.50;99.90;;;;;;5054581;28;20206;-61
2021/06/05 07:46:00;;;;;;;73.00;36.60;;;18.50;13.50;;;;;;5054371;28;20279;-60
2021/06/05 07:48:29;;;;;;;63.93;35.70;;;18.50;1.00;;;;;;5054457;28;20213;-60
2021/06/05 07:50:56;;;;;;;64.27;36.00;;;18.60;1.00;;;;;;5053964;28;20206;-59
2021/06/05 07:53:22;;;;;;;71.13;38.53;;;18.50;1.00;;;;;;5054566;28;20202;-61
2021/06/05 07:55:49;;;;;;;68.10;38.73;;;18.50;1.00;;;;;;5054017;28;20718;-61
2021/06/05 07:58:16;;;;;;;70.27;38.87;;;18.50;1.00;;;;;;5054320;28;20206;-60
2021/06/05 08:00:42;;;;;;;78.97;40.83;;;18.50;1.00;;;;;;5053937;28;20206;-61
2021/06/05 08:03:09;;;;;;;70.87;39.93;;;18.50;1.00;;;;;;5054103;28;20229;-64
2021/06/05 08:05:36;;;;;;;72.57;39.97;;;18.50;1.00;;;;;;5053856;28;20222;-63
2021/06/05 08:08:04;;;;;;;67.53;38.50;;;18.50;36.20;;;;;;5054290;28;20256;-60
2021/06/05 08:10:30;;;;;;;71.03;39.70;;;18.60;1.00;;;;;;5054283;28;20205;-60
2021/06/05 08:12:56;;;;;;;68.93;40.30;;;18.60;1.00;;;;;;5053836;28;20658;-62
2021/06/05 08:15:27;;;;;;;71.53;40.83;;;18.60;1.00;;;;;;5053840;28;20205;-62
2021/06/05 08:17:54;;;;;;;63.83;38.20;;;18.70;1.00;;;;;;5053902;28;20267;-60
2021/06/05 08:20:24;;;;;;;65.57;38.83;;;18.70;1.00;;;;;;5053603;28;20304;-62
2021/06/05 08:22:50;;;;;;;61.27;37.67;;;18.80;1.00;;;;;;5053086;28;20229;-60
2021/06/05 08:25:17;;;;;;;69.90;39.87;;;18.80;99.90;;;;;;5053814;28;20670;-59
2021/06/05 08:27:43;;;;;;;61.67;36.10;;;18.80;1.00;;;;;;5053747;28;20628;-61
2021/06/05 08:30:16;;;;;;;62.23;36.87;;;18.90;99.90;;;;;;5053738;28;20210;-60
2021/06/05 08:32:43;;;;;;;63.40;36.83;;;19.00;99.90;;;;;;5054384;28;20212;-64
2021/06/05 08:35:10;;;;;;;63.30;36.37;;;19.00;99.90;;;;;;5054983;28;20355;-63
2021/06/05 08:37:37;;;;;;;59.07;36.33;;;19.10;99.90;;;;;;5054710;28;20201;-61
2021/06/05 08:40:05;;;;;;;56.83;35.73;;;19.20;99.90;;;;;;5055163;28;20209;-61
2021/06/05 08:42:38;;;;;;;61.27;36.90;;;19.30;99.90;;;;;;5058934;28;20221;-63
2021/06/05 08:45:06;;;;;;;62.07;36.03;;;19.30;99.90;;;;;;5074435;28;20212;-63
2021/06/05 08:47:35;;;;;;;57.87;36.90;;;19.40;99.90;;;;;;5045662;28;20237;-64
2021/06/05 08:50:06;;;;;;;55.43;35.13;;;19.50;99.90;;;;;;5033105;28;20219;-64
2021/06/05 08:52:36;;;;;;;54.50;33.50;;;19.70;99.90;;;;;;5033487;28;20210;-63
2021/06/05 08:55:07;;;;;;;54.97;35.13;;;19.80;99.90;;;;;;5033445;28;20218;-65
2021/06/05 08:57:36;;;;;;;54.30;34.83;;;19.80;99.90;;;;;;5033006;28;20229;-65
2021/06/05 09:00:15;;;;;;;54.37;36.37;;;19.80;99.90;;;;;;5033005;28;20214;-65
2021/06/05 09:02:42;;;;;;;51.70;33.67;;;19.60;99.90;;;;;;5033080;28;20230;-64
2021/06/05 09:05:13;;;;;;;55.07;35.10;;;19.50;99.90;;;;;;5032827;28;20583;-65
2021/06/05 09:07:41;;;;;;;61.07;36.97;;;19.40;99.90;;;;;;5033522;28;20714;-64
2021/06/05 09:10:09;;;;;;;55.43;34.53;;;19.10;99.90;;;;;;5032715;28;20215;-65
2021/06/05 09:12:35;;;;;;;54.50;33.07;;;19.10;99.90;;;;;;5033008;28;20659;-65
2021/06/05 09:15:02;;;;;;;57.20;35.40;;;19.00;99.90;;;;;;5036671;28;20255;-65
2021/06/05 09:17:36;;;;;;;50.37;32.60;;;19.10;99.90;;;;;;5036740;28;20595;-65
2021/06/05 09:20:13;;;;;;;52.93;32.37;;;19.20;99.90;;;;;;5032704;28;20292;-65
2021/06/05 09:22:41;;;;;;;46.47;31.93;;;19.40;99.90;;;;;;5032490;28;20316;-64
2021/06/05 09:25:27;;;;;;;48.67;31.03;;;19.40;42.70;;;;;;5033242;28;20210;-65
2021/06/05 09:28:10;;;;;;;50.37;32.60;;;19.60;90.90;;;;;;5033115;28;20206;-65
2021/06/05 09:30:37;;;;;;;53.10;33.43;;;19.60;36.60;;;;;;5032831;28;20686;-65
2021/06/05 09:33:06;;;;;;;59.10;35.97;;;19.40;79.90;;;;;;5032521;28;20264;-64
2021/06/05 09:35:37;;;;;;;58.13;35.87;;;19.30;99.90;;;;;;5032428;28;20223;-65
2021/06/05 09:38:26;;;;;;;60.67;37.00;;;19.40;99.90;;;;;;5032651;28;20613;-64
2021/06/05 09:41:05;;;;;;;59.80;37.03;;;19.40;99.90;;;;;;5032498;28;20210;-65
2021/06/05 09:43:32;;;;;;;69.53;40.53;;;19.40;99.90;;;;;;5032487;28;20214;-65
2021/06/05 09:46:09;;;;;;;67.73;38.70;;;19.30;79.10;;;;;;5032552;28;20603;-66
2021/06/05 09:48:39;;;;;;;68.23;41.73;;;19.40;99.90;;;;;;5032404;28;20206;-66
2021/06/05 09:51:27;;;;;;;69.20;40.97;;;19.50;99.90;;;;;;5032437;28;20202;-68
2021/06/05 09:53:59;;;;;;;66.77;41.93;;;19.70;99.90;;;;;;5032271;28;20209;-66
2021/06/05 09:56:28;;;;;;;68.60;40.63;;;19.90;69.10;;;;;;5036202;28;20221;-66
2021/06/05 09:59:02;;;;;;;66.13;41.60;;;20.00;40.30;;;;;;5051477;28;20217;-65
2021/06/05 10:01:30;;;;;;;74.87;45.17;;;19.90;1.00;;;;;;5051718;28;20225;-66
2021/06/05 10:04:09;;;;;;;67.37;42.13;;;19.80;13.40;;;;;;5051573;28;20213;-65
2021/06/05 10:06:41;;;;;;;61.33;38.53;;;20.00;60.20;;;;;;5051237;28;20811;-66
2021/06/05 10:09:34;;;;;;;56.40;37.17;;;20.10;1.00;;;;;;5051525;28;20697;-66
2021/06/05 10:12:05;;;;;;;53.87;35.30;;;20.20;1.00;;;;;;5049585;28;20565;-66
2021/06/05 10:14:51;;;;;;;52.23;34.67;;;20.00;1.00;;;;;;5051839;28;20201;-65
2021/06/05 10:17:26;;;;;;;49.87;33.97;;;20.20;1.00;;;;;;5051521;28;20229;-65
2021/06/05 10:19:55;;;;;;;52.57;33.17;;;20.30;1.00;;;;;;5051431;28;20220;-64
2021/06/05 10:22:24;;;;;;;48.57;33.07;;;20.40;1.00;;;;;;5051420;28;20229;-64
2021/06/05 10:24:56;;;;;;;48.83;32.63;;;20.50;1.00;;;;;;5051675;28;20208;-65
2021/06/05 10:27:26;;;;;;;47.83;31.87;;;20.80;1.00;;;;;;5050866;28;21000;-64
2021/06/05 10:29:56;;;;;;;46.60;32.20;;;20.90;1.00;;;;;;5050452;28;20205;-63
2021/06/05 10:32:27;;;;;;;52.97;34.03;;;21.10;1.00;;;;;;5051535;28;20687;-65
2021/06/05 10:35:00;;;;;;;49.53;32.83;;;21.40;1.00;;;;;;5051588;28;20256;-64
2021/06/05 10:37:31;;;;;;;50.10;32.80;;;21.60;1.00;;;;;;5050820;28;20710;-65
2021/06/05 10:39:59;;;;;;;48.03;33.03;;;21.50;1.00;;;;;;5051399;28;20213;-65
2021/06/05 10:42:28;;;;;;;48.33;33.13;;;21.60;1.00;;;;;;5051271;28;20279;-65
2021/06/05 10:44:56;;;;;;;42.53;29.53;;;21.80;1.00;;;;;;5051561;28;20209;-65
2021/06/05 10:47:25;;;;;;;43.73;29.60;;;22.30;1.00;;;;;;5054133;28;20225;-65
2021/06/05 10:49:55;;;;;;;45.30;30.57;;;22.50;1.00;;;;;;5055104;28;20205;-63
2021/06/05 10:52:30;;;;;;;44.67;30.17;;;22.30;1.00;;;;;;5054759;28;20741;-63
2021/06/05 10:54:59;;;;;;;43.70;29.23;;;22.20;1.00;;;;;;5055278;28;20205;-64
2021/06/05 10:57:35;;;;;;;41.27;29.10;;;22.40;1.00;;;;;;5054972;28;20275;-64
2021/06/05 11:00:10;;;;;;;36.93;26.87;;;22.50;1.00;;;;;;5054801;28;20212;-63
2021/06/05 11:02:48;;;;;;;39.50;27.73;;;22.80;99.90;;;;;;5054786;28;20224;-66
2021/06/05 11:05:41;;;;;;;29.80;22.67;;;23.10;99.90;;;;;;5055006;28;20212;-66
2021/06/05 11:08:36;;;;;;;43.27;23.70;;;23.20;99.90;;;;;;5054851;28;20292;-63
2021/06/05 11:11:39;;;;;;;35.37;25.93;;;23.30;99.90;;;;;;5054466;28;20205;-62
2021/06/05 11:14:35;;;;;;;34.20;24.37;;;23.20;99.90;;;;;;5054781;28;20215;-63
2021/06/05 11:17:21;;;;;;;34.90;25.03;;;23.10;99.90;;;;;;5047816;28;20321;-63
2021/06/05 11:19:51;;;;;;;33.83;24.07;;;23.10;99.90;;;;;;5054850;28;20727;-62
2021/06/05 11:22:19;;;;;;;36.20;25.83;;;23.10;99.90;;;;;;5054622;28;20229;-63
2021/06/05 11:25:23;;;;;;;34.23;24.80;;;23.20;99.90;;;;;;5054657;28;20210;-63
2021/06/05 11:27:52;;;;;;;38.73;26.53;;;23.20;99.90;;;;;;5054069;28;20274;-63
2021/06/05 11:30:37;;;;;;;38.97;26.33;;;23.10;99.90;;;;;;5054477;28;20235;-63
2021/06/05 11:33:06;;;;;;;37.97;26.37;;;22.90;99.90;;;;;;5054474;28;20293;-62
2021/06/05 11:35:41;;;;;;;36.50;24.87;;;22.80;99.90;;;;;;5054208;28;20267;-62
2021/06/05 11:38:10;;;;;;;32.63;23.83;;;22.80;99.90;;;;;;5053871;28;20236;-63
2021/06/05 11:40:56;;;;;;;36.73;26.37;;;22.80;99.90;;;;;;5054425;28;20205;-62
2021/06/05 11:43:49;;;;;;;39.50;27.77;;;22.60;99.90;;;;;;5054079;28;20241;-61
2021/06/05 11:46:45;;;;;;;38.93;27.43;;;22.40;99.90;;;;;;5053820;28;20599;-63
2021/06/05 11:49:42;;;;;;;43.20;28.20;;;22.20;99.90;;;;;;5052770;28;20197;-63
2021/06/05 11:52:44;;;;;;;44.87;30.00;;;22.20;99.90;;;;;;5053462;28;20212;-62
2021/06/05 11:55:44;;;;;;;48.37;34.37;;;22.30;99.90;;;;;;5053958;28;20206;-62
2021/06/05 11:58:29;;;;;;;56.57;39.13;;;22.10;99.90;;;;;;5051122;28;20214;-64
2021/06/05 12:01:15;;;;;;;52.83;36.53;;;21.90;99.90;;;;;;5052688;28;20210;-63
2021/06/05 12:03:47;;;;;;;54.33;35.37;;;21.70;99.90;;;;;;5053743;28;20232;-62
2021/06/05 12:06:20;;;;;;;49.87;34.77;;;21.80;99.90;;;;;;5053522;28;20316;-64
2021/06/05 12:08:58;;;;;;;51.97;37.03;;;21.90;99.90;;;;;;5053868;28;20590;-64
2021/06/05 12:11:34;;;;;;;52.43;35.10;;;22.00;99.90;;;;;;5053323;28;20205;-65
2021/06/05 12:14:13;;;;;;;47.87;34.33;;;22.10;99.90;;;;;;5053875;28;20201;-65
2021/06/05 12:16:54;;;;;;;53.27;37.20;;;22.10;99.90;;;;;;5053281;28;20230;-64
2021/06/05 12:19:27;;;;;;;58.70;40.73;;;22.00;99.90;;;;;;5053927;28;20271;-63
2021/06/05 12:21:53;;;;;;;53.57;38.57;;;21.80;99.90;;;;;;5052929;28;20232;-62
2021/06/05 12:24:23;;;;;;;53.40;38.37;;;21.40;99.90;;;;;;5053749;28;20240;-60
2021/06/05 12:26:54;;;;;;;53.37;38.60;;;21.30;99.90;;;;;;5053238;28;20238;-63
2021/06/05 12:29:25;;;;;;;56.00;41.40;;;21.30;99.90;;;;;;5053343;28;20252;-64
2021/06/05 12:31:55;;;;;;;58.30;41.53;;;21.00;99.90;;;;;;5053410;28;20201;-63
2021/06/05 12:34:31;;;;;;;63.83;45.00;;;20.60;99.90;;;;;;5053132;28;20212;-60
2021/06/05 12:37:00;;;;;;;61.40;43.23;;;20.40;99.90;;;;;;5053876;28;20234;-63
2021/06/05 12:39:38;;;;;;;72.03;45.30;;;20.30;99.90;;;;;;5054715;28;20263;-64
2021/06/05 12:42:07;;;;;;;70.27;46.47;;;20.20;1.00;;;;;;5053206;28;20222;-62
2021/06/05 12:44:36;;;;;;;67.83;45.33;;;20.10;1.00;;;;;;5056514;28;20606;-64